Terminal Aerodrome Forecast
Issued by NWS Spokane, WA

Home | Current Version | Previous Version | Text Only | Print | Product List | Glossary On
Versions: 1 2 3 4 5 6 7 8 9 10 11 12 13 14 15 16 17 18 19 20 21 22 23 24 25
000
FTUS46 KOTX 231139
TAFGEG
TAF
KGEG 231139Z 2312/2412 00000KT 1/4SM FZFG VV001
     FM231600 VRB02KT 1/2SM FZFG VV002
     FM231700 33004KT 4SM BR FEW005 SCT015
     FM231900 34005KT P6SM FEW015
     FM241000 VRB03KT 5SM BCFG SCT002=

USA.gov is the U.S. government's official web portal to all federal, state and local government web resources and services.